createdAt,value
2018-09-06T00:01:37.635Z,35.30
2018-09-06T00:04:06.862Z,34.30
2018-09-06T00:06:35.510Z,34.10
2018-09-06T00:09:04.955Z,35.03
2018-09-06T00:11:33.462Z,37.80
2018-09-06T00:14:02.998Z,37.23
2018-09-06T00:16:31.548Z,35.35
2018-09-06T00:19:00.089Z,36.03
2018-09-06T00:21:28.601Z,37.83
2018-09-06T00:23:57.137Z,37.42
2018-09-06T00:26:25.742Z,37.73
2018-09-06T00:28:54.533Z,37.03
2018-09-06T00:31:22.949Z,36.53
2018-09-06T00:33:51.888Z,36.77
2018-09-06T00:36:20.472Z,36.03
2018-09-06T00:38:49.013Z,36.42
2018-09-06T00:41:17.661Z,37.53
2018-09-06T00:43:46.077Z,36.68
2018-09-06T00:46:14.888Z,36.33
2018-09-06T00:48:43.810Z,35.88
2018-09-06T00:51:12.437Z,38.75
2018-09-06T00:53:41.540Z,34.53
2018-09-06T00:56:10.705Z,35.50
2018-09-06T00:58:39.156Z,35.20
2018-09-06T01:01:11.208Z,37.45
2018-09-06T01:03:39.721Z,38.33
2018-09-06T01:06:08.173Z,37.10
2018-09-06T01:08:36.736Z,35.48
2018-09-06T01:11:05.288Z,33.58
2018-09-06T01:13:33.805Z,38.13
2018-09-06T01:16:02.444Z,37.58
2018-09-06T01:18:30.973Z,38.13
2018-09-06T01:20:59.452Z,33.08
2018-09-06T01:23:28.051Z,37.55
2018-09-06T01:25:57.613Z,39.18
2018-09-06T01:28:26.286Z,35.40
2018-09-06T01:30:54.899Z,38.28
2018-09-06T01:33:23.537Z,39.27
2018-09-06T01:35:57.324Z,39.30
2018-09-06T01:38:25.753Z,36.93
2018-09-06T01:40:54.197Z,36.75
2018-09-06T01:43:23.141Z,38.92
2018-09-06T01:45:52.797Z,35.70
2018-09-06T01:48:21.505Z,37.75
2018-09-06T01:50:50.730Z,40.95
2018-09-06T01:53:19.324Z,37.83
2018-09-06T01:55:49.138Z,36.80
2018-09-06T01:58:17.661Z,35.80
2018-09-06T02:00:46.957Z,39.67
2018-09-06T02:03:15.475Z,38.40
2018-09-06T02:05:43.888Z,38.17
2018-09-06T02:08:12.323Z,35.73
2018-09-06T02:10:41.465Z,37.58
2018-09-06T02:13:09.896Z,34.10
2018-09-06T02:15:38.395Z,34.58
2018-09-06T02:18:07.582Z,39.18
2018-09-06T02:20:36.072Z,34.00
2018-09-06T02:23:04.556Z,36.48
2018-09-06T02:25:33.035Z,40.75
2018-09-06T02:28:02.088Z,36.25
2018-09-06T02:30:30.657Z,36.10
2018-09-06T02:32:59.418Z,39.48
2018-09-06T02:35:28.494Z,35.63
2018-09-06T02:37:57.050Z,38.73
2018-09-06T02:40:30.668Z,35.47
2018-09-06T02:42:59.142Z,37.85
2018-09-06T02:45:27.665Z,41.02
2018-09-06T02:47:57.059Z,37.08
2018-09-06T02:50:33.342Z,41.07
2018-09-06T02:53:01.868Z,41.13
2018-09-06T02:55:30.804Z,40.23
2018-09-06T02:58:00.056Z,39.20
2018-09-06T03:00:29.901Z,38.63
2018-09-06T03:02:58.465Z,39.83
2018-09-06T03:05:27.612Z,39.53
2018-09-06T03:07:58.194Z,41.08
2018-09-06T03:10:37.148Z,40.00
2018-09-06T03:13:06.769Z,44.35
2018-09-06T03:15:36.207Z,42.75
2018-09-06T03:18:04.802Z,45.92
2018-09-06T03:20:33.254Z,43.05
2018-09-06T03:23:03.007Z,42.00
2018-09-06T03:25:32.212Z,42.85
2018-09-06T03:28:01.260Z,41.08
2018-09-06T03:30:29.789Z,43.80
2018-09-06T03:32:58.465Z,42.90
2018-09-06T03:35:27.141Z,42.80
2018-09-06T03:37:55.605Z,41.75
2018-09-06T03:40:24.033Z,43.37
2018-09-06T03:42:52.532Z,47.58
2018-09-06T03:45:21.217Z,43.07
2018-09-06T03:47:50.536Z,42.45
2018-09-06T03:50:19.229Z,44.20
2018-09-06T03:52:47.789Z,44.15
2018-09-06T03:55:16.271Z,47.33
2018-09-06T03:57:45.003Z,44.80
2018-09-06T04:00:13.483Z,48.17
2018-09-06T04:02:41.995Z,47.40
2018-09-06T04:05:10.437Z,46.65
2018-09-06T04:07:39.012Z,45.12
2018-09-06T04:10:07.705Z,49.65
2018-09-06T04:12:36.168Z,47.65
2018-09-06T04:15:04.930Z,45.08
2018-09-06T04:17:33.399Z,51.00
2018-09-06T04:20:02.371Z,48.05
2018-09-06T04:22:30.861Z,47.00
2018-09-06T04:24:59.699Z,50.75
2018-09-06T04:28:37.784Z,49.18
2018-09-06T04:31:06.517Z,47.03
2018-09-06T04:33:35.780Z,50.38
2018-09-06T04:36:04.852Z,52.48
2018-09-06T04:38:33.301Z,46.90
2018-09-06T04:41:02.355Z,46.33
2018-09-06T04:43:31.120Z,48.42
2018-09-06T04:45:59.949Z,43.35
2018-09-06T04:48:28.485Z,43.83
2018-09-06T04:50:57.088Z,44.87
2018-09-06T04:53:25.786Z,42.40
2018-09-06T04:55:54.208Z,44.85
2018-09-06T04:58:23.414Z,46.88
2018-09-06T05:00:52.240Z,41.73
2018-09-06T05:03:21.523Z,46.37
2018-09-06T05:05:50.057Z,44.38
2018-09-06T05:08:19.055Z,44.48
2018-09-06T05:10:47.637Z,45.00
2018-09-06T05:13:16.097Z,47.70
2018-09-06T05:15:44.826Z,46.37
2018-09-06T05:18:13.527Z,43.87
2018-09-06T05:20:42.006Z,43.30
2018-09-06T05:23:10.540Z,44.85
2018-09-06T05:25:38.990Z,42.98
2018-09-06T05:28:07.504Z,43.25
2018-09-06T05:30:36.228Z,45.58
2018-09-06T05:33:04.793Z,48.38
2018-09-06T05:35:33.257Z,46.18
2018-09-06T05:38:01.852Z,41.40
2018-09-06T05:40:30.341Z,41.25
2018-09-06T05:42:58.907Z,42.23
2018-09-06T05:45:27.615Z,40.20
2018-09-06T05:47:57.736Z,42.30
2018-09-06T05:50:27.449Z,43.45
2018-09-06T05:52:56.051Z,42.88
2018-09-06T05:55:24.693Z,42.67
2018-09-06T05:57:53.992Z,40.38
2018-09-06T06:00:28.061Z,45.80
2018-09-06T06:02:58.725Z,48.00
2018-09-06T06:05:27.924Z,51.00
2018-09-06T06:08:07.797Z,46.88
2018-09-06T06:10:36.411Z,46.90
2018-09-06T06:13:04.928Z,50.03
2018-09-06T06:15:33.821Z,46.53
2018-09-06T06:18:02.846Z,47.27
2018-09-06T06:20:31.303Z,48.80
2018-09-06T06:22:59.766Z,48.58
2018-09-06T06:25:28.230Z,47.83
2018-09-06T06:27:56.779Z,44.38
2018-09-06T06:30:26.315Z,46.00
2018-09-06T06:32:55.001Z,43.78
2018-09-06T06:35:23.979Z,44.77
2018-09-06T06:37:52.470Z,46.37
2018-09-06T06:40:21.367Z,47.57
2018-09-06T06:42:50.056Z,50.30
2018-09-06T06:45:18.623Z,46.53
2018-09-06T06:47:47.647Z,42.25
2018-09-06T06:50:16.672Z,43.70
2018-09-06T06:52:45.456Z,40.80
2018-09-06T06:55:14.681Z,44.23
2018-09-06T06:57:43.120Z,41.85
2018-09-06T07:00:11.865Z,43.65
2018-09-06T07:02:40.330Z,43.35
2018-09-06T07:05:09.095Z,42.95
2018-09-06T07:07:37.993Z,41.65
2018-09-06T07:10:07.156Z,42.06
2018-09-06T07:12:35.818Z,42.25
2018-09-06T07:15:04.542Z,45.48
2018-09-06T07:17:33.278Z,44.90
2018-09-06T07:20:02.576Z,44.08
2018-09-06T07:22:31.062Z,39.35
2018-09-06T07:24:59.669Z,41.83
2018-09-06T07:27:28.505Z,40.98
2018-09-06T07:29:57.278Z,45.70
2018-09-06T07:32:25.810Z,41.13
2018-09-06T07:34:54.237Z,43.08
2018-09-06T07:37:22.830Z,40.10
2018-09-06T07:39:51.422Z,39.83
2018-09-06T07:42:20.155Z,44.80
2018-09-06T07:44:48.605Z,43.28
2018-09-06T07:47:17.136Z,48.60
2018-09-06T07:49:46.421Z,35.17
2018-09-06T07:52:15.035Z,37.97
2018-09-06T07:54:44.210Z,42.60
2018-09-06T07:57:12.775Z,35.35
2018-09-06T07:59:41.564Z,41.28
2018-09-06T08:02:10.072Z,32.28
2018-09-06T08:04:38.756Z,33.23
2018-09-06T08:07:07.489Z,34.78
2018-09-06T08:09:36.237Z,40.90
2018-09-06T08:12:05.453Z,37.08
2018-09-06T08:14:34.108Z,38.98
2018-09-06T08:19:40.478Z,39.08
2018-09-06T08:22:09.025Z,38.88
2018-09-06T08:24:38.657Z,41.20
2018-09-06T08:27:07.856Z,40.73
2018-09-06T08:29:39.118Z,41.40
2018-09-06T08:32:07.845Z,39.27
2018-09-06T08:34:36.590Z,38.78
2018-09-06T08:37:05.411Z,38.67
2018-09-06T08:39:34.037Z,41.80
2018-09-06T08:42:02.796Z,39.45
2018-09-06T08:44:31.466Z,42.03
2018-09-06T08:47:00.596Z,41.70
2018-09-06T08:49:29.085Z,40.58
2018-09-06T08:51:57.784Z,42.35
2018-09-06T08:54:26.988Z,41.53
2018-09-06T08:56:55.681Z,39.88
2018-09-06T08:59:24.230Z,39.85
2018-09-06T09:01:52.963Z,39.17
2018-09-06T09:04:21.994Z,39.55
2018-09-06T09:06:50.602Z,39.00
2018-09-06T09:09:20.246Z,42.40
2018-09-06T09:11:54.311Z,42.78
2018-09-06T09:14:23.121Z,41.88
2018-09-06T09:16:51.802Z,42.58
2018-09-06T09:19:20.498Z,42.03
2018-09-06T09:21:49.172Z,39.90
2018-09-06T09:24:17.776Z,41.50
2018-09-06T09:26:46.311Z,41.08
2018-09-06T09:29:15.007Z,41.45
2018-09-06T09:31:43.554Z,47.65
2018-09-06T09:34:12.201Z,46.92
2018-09-06T09:36:40.832Z,43.33
2018-09-06T09:39:10.349Z,40.73
2018-09-06T09:41:39.614Z,52.20
2018-09-06T09:44:08.845Z,42.23
2018-09-06T09:49:05.144Z,39.30
2018-09-06T09:51:33.841Z,43.78
2018-09-06T09:54:02.608Z,42.15
2018-09-06T09:56:31.125Z,40.78
2018-09-06T09:58:59.632Z,43.02
2018-09-06T10:01:33.374Z,50.25
2018-09-06T10:04:07.343Z,40.83
2018-09-06T10:06:41.120Z,40.28
2018-09-06T10:09:16.164Z,41.45
2018-09-06T10:11:44.811Z,43.10
2018-09-06T10:14:14.628Z,42.73
2018-09-06T10:16:43.335Z,43.48
2018-09-06T10:19:11.914Z,59.15
2018-09-06T10:21:41.967Z,46.73
2018-09-06T10:24:11.233Z,63.20
2018-09-06T10:26:40.532Z,45.05
2018-09-06T10:29:09.479Z,67.32
2018-09-06T10:31:38.212Z,48.80
2018-09-06T10:34:12.965Z,58.83
2018-09-06T10:36:41.491Z,47.90
2018-09-06T10:39:10.920Z,55.78
2018-09-06T10:41:39.702Z,49.50
2018-09-06T10:44:08.412Z,52.30
2018-09-06T10:46:37.208Z,49.83
2018-09-06T10:49:07.183Z,54.80
2018-09-06T10:51:36.718Z,64.67
2018-09-06T10:54:05.397Z,55.03
2018-09-06T10:56:34.029Z,54.20
2018-09-06T10:59:02.545Z,81.63
2018-09-06T11:01:31.090Z,54.83
2018-09-06T11:03:59.797Z,56.80
2018-09-06T11:06:28.303Z,55.80
2018-09-06T11:08:56.882Z,49.23
2018-09-06T11:11:25.384Z,52.43
2018-09-06T11:13:54.314Z,58.50
2018-09-06T11:16:23.278Z,65.03
2018-09-06T11:18:52.083Z,52.73
2018-09-06T11:21:21.387Z,50.85
2018-09-06T11:23:50.005Z,48.87
2018-09-06T11:26:18.959Z,50.55
2018-09-06T11:28:47.639Z,51.23
2018-09-06T11:31:16.785Z,48.25
2018-09-06T11:33:45.275Z,49.45
2018-09-06T11:36:14.148Z,49.88
2018-09-06T11:38:42.873Z,46.80
2018-09-06T11:41:11.439Z,47.67
2018-09-06T11:43:39.981Z,50.33
2018-09-06T11:46:08.815Z,44.67
2018-09-06T11:48:37.402Z,48.52
2018-09-06T11:51:12.797Z,46.70
2018-09-06T11:53:41.545Z,47.65
2018-09-06T11:56:10.277Z,48.55
2018-09-06T11:58:38.971Z,46.58
2018-09-06T12:01:08.101Z,53.63
2018-09-06T12:03:36.908Z,51.10
2018-09-06T12:06:05.499Z,51.60
2018-09-06T12:08:34.003Z,46.98
2018-09-06T12:11:02.940Z,51.53
2018-09-06T12:13:32.156Z,55.23
2018-09-06T12:16:00.645Z,47.97
2018-09-06T12:18:29.523Z,49.10
2018-09-06T12:20:58.081Z,48.92
2018-09-06T12:23:26.836Z,45.58
2018-09-06T12:25:55.823Z,48.65
2018-09-06T12:28:24.780Z,48.13
2018-09-06T12:30:53.558Z,51.35
2018-09-06T12:33:23.469Z,50.10
2018-09-06T12:35:52.207Z,47.80
2018-09-06T12:38:20.948Z,48.05
2018-09-06T12:40:49.542Z,49.88
2018-09-06T12:43:18.190Z,47.03
2018-09-06T12:45:46.843Z,46.85
2018-09-06T12:48:15.838Z,43.40
2018-09-06T12:50:45.194Z,40.50
2018-09-06T12:53:13.713Z,39.90
2018-09-06T12:55:42.466Z,39.73
2018-09-06T12:58:11.061Z,40.75
2018-09-06T13:00:40.397Z,38.20
2018-09-06T13:03:08.932Z,36.63
2018-09-06T13:05:37.453Z,34.85
2018-09-06T13:08:06.017Z,37.63
2018-09-06T13:10:34.550Z,35.48
2018-09-06T13:13:03.199Z,39.38
2018-09-06T13:15:31.876Z,38.20
2018-09-06T13:18:00.472Z,32.73
2018-09-06T13:20:29.089Z,36.67
2018-09-06T13:22:57.604Z,38.00
2018-09-06T13:25:26.348Z,37.13
2018-09-06T13:27:54.884Z,36.10
2018-09-06T13:30:23.507Z,36.08
2018-09-06T13:32:52.192Z,35.25
2018-09-06T13:35:20.948Z,35.10
2018-09-06T13:37:49.430Z,35.55
2018-09-06T13:40:18.059Z,33.27
2018-09-06T13:42:46.715Z,35.55
2018-09-06T13:45:15.671Z,34.00
2018-09-06T13:47:44.264Z,32.90
2018-09-06T13:50:12.748Z,34.18
2018-09-06T13:52:41.273Z,35.45
2018-09-06T13:55:09.798Z,34.50
2018-09-06T13:57:38.443Z,35.48
2018-09-06T14:00:07.882Z,34.46
2018-09-06T14:02:36.408Z,33.98
2018-09-06T14:05:04.924Z,30.37
2018-09-06T14:07:33.785Z,31.75
2018-09-06T14:10:02.317Z,30.97
2018-09-06T14:12:30.993Z,28.27
2018-09-06T14:14:59.585Z,27.20
2018-09-06T14:17:28.308Z,27.37
2018-09-06T14:19:56.922Z,26.33
2018-09-06T14:22:26.021Z,24.70
2018-09-06T14:24:54.700Z,24.95
2018-09-06T14:27:23.221Z,25.00
2018-09-06T14:29:51.742Z,24.02
2018-09-06T14:32:21.596Z,21.87
2018-09-06T14:34:50.176Z,23.30
2018-09-06T14:37:18.990Z,25.65
2018-09-06T14:39:47.520Z,25.77
2018-09-06T14:42:22.735Z,27.45
2018-09-06T14:44:52.086Z,24.92
2018-09-06T14:47:20.806Z,29.45
2018-09-06T14:49:49.978Z,29.82
2018-09-06T14:52:18.585Z,24.67
2018-09-06T14:54:47.328Z,23.00
2018-09-06T14:57:16.075Z,23.27
2018-09-06T14:59:44.611Z,20.20
2018-09-06T15:02:13.221Z,20.52
2018-09-06T15:04:41.829Z,18.65
2018-09-06T15:07:10.313Z,41.30
2018-09-06T15:09:39.877Z,22.02
2018-09-06T15:12:08.640Z,24.02
2018-09-06T15:14:37.406Z,22.65
2018-09-06T15:17:06.124Z,23.38
2018-09-06T15:19:35.100Z,23.85
2018-09-06T15:22:03.727Z,23.98
2018-09-06T15:24:32.651Z,23.30
2018-09-06T15:27:01.563Z,22.65
2018-09-06T15:29:30.311Z,21.93
2018-09-06T15:31:58.825Z,22.73
2018-09-06T15:34:27.751Z,25.30
2018-09-06T15:36:56.441Z,25.75
2018-09-06T15:39:25.169Z,28.73
2018-09-06T15:41:53.901Z,28.15
2018-09-06T15:44:22.537Z,27.98
2018-09-06T15:46:51.460Z,24.90
2018-09-06T15:49:20.169Z,26.95
2018-09-06T15:51:48.705Z,27.37
2018-09-06T15:54:17.253Z,27.17
2018-09-06T15:56:46.484Z,31.33
2018-09-06T15:59:15.326Z,31.93
2018-09-06T16:01:44.771Z,27.20
2018-09-06T16:04:13.265Z,29.15
2018-09-06T16:06:41.781Z,30.88
2018-09-06T16:09:10.747Z,31.12
2018-09-06T16:11:39.498Z,29.70
2018-09-06T16:14:14.657Z,31.37
2018-09-06T16:16:43.543Z,29.23
2018-09-06T16:19:12.054Z,27.37
2018-09-06T16:41:51.997Z,25.43
2018-09-06T16:44:20.464Z,23.70
2018-09-06T16:46:49.016Z,23.40
2018-09-06T16:49:17.700Z,22.93
2018-09-06T16:51:46.201Z,21.85
2018-09-06T16:54:15.169Z,18.17
2018-09-06T16:56:43.845Z,14.20
2018-09-06T16:59:12.576Z,12.13
2018-09-06T17:01:41.513Z,11.15
2018-09-06T17:04:10.015Z,15.35
2018-09-06T17:06:38.618Z,9.73
2018-09-06T17:09:08.868Z,10.13
2018-09-06T17:11:37.630Z,8.80
2018-09-06T17:14:12.895Z,8.40
2018-09-06T17:16:41.507Z,8.88
2018-09-06T17:19:10.345Z,7.97
2018-09-06T17:21:39.201Z,8.43
2018-09-06T17:24:07.879Z,7.80
2018-09-06T17:26:36.524Z,8.10
2018-09-06T17:29:05.060Z,7.97
2018-09-06T17:31:33.589Z,8.28
2018-09-06T17:34:02.047Z,8.08
2018-09-06T17:36:30.662Z,8.03
2018-09-06T17:38:59.549Z,8.05
2018-09-06T17:41:28.000Z,8.30
2018-09-06T17:43:56.854Z,8.53
2018-09-06T17:46:25.573Z,7.90
2018-09-06T17:48:54.054Z,8.55
2018-09-06T17:51:22.743Z,8.18
2018-09-06T17:53:56.450Z,7.65
2018-09-06T17:56:27.853Z,7.37
2018-09-06T17:58:56.654Z,8.38
2018-09-06T18:01:32.637Z,7.97
2018-09-06T18:04:01.474Z,8.08
2018-09-06T18:06:30.168Z,8.58
2018-09-06T18:08:58.772Z,8.18
2018-09-06T18:11:27.858Z,7.80
2018-09-06T18:13:56.872Z,8.33
2018-09-06T18:16:25.339Z,5.97
2018-09-06T18:18:54.749Z,12.37
2018-09-06T18:21:24.290Z,8.88
2018-09-06T18:23:53.557Z,6.67
2018-09-06T18:26:22.645Z,5.30
2018-09-06T18:28:51.411Z,5.25
2018-09-06T18:31:20.410Z,6.17
2018-09-06T18:33:49.120Z,12.00
2018-09-06T18:36:18.459Z,11.08
2018-09-06T18:38:47.845Z,6.30
2018-09-06T18:41:18.081Z,12.00
2018-09-06T18:43:46.988Z,5.92
2018-09-06T18:46:16.033Z,5.72
2018-09-06T18:48:45.731Z,6.72
2018-09-06T18:51:14.747Z,22.15
2018-09-06T18:53:43.941Z,6.67
2018-09-06T18:56:12.575Z,5.47
2018-09-06T18:58:41.372Z,5.60
2018-09-06T19:01:09.954Z,5.53
2018-09-06T19:03:39.158Z,4.90
2018-09-06T19:06:08.137Z,5.62
2018-09-06T19:08:37.076Z,5.53
2018-09-06T19:11:07.927Z,5.37
2018-09-06T19:13:36.566Z,6.15
2018-09-06T19:16:05.168Z,5.80
2018-09-06T19:18:34.080Z,5.55
2018-09-06T19:21:02.650Z,6.25
2018-09-06T19:23:31.167Z,6.20
2018-09-06T19:25:59.857Z,6.47
2018-09-06T19:28:28.619Z,5.75
2018-09-06T19:30:57.194Z,7.03
2018-09-06T19:33:25.799Z,5.72
2018-09-06T19:35:54.735Z,6.40
2018-09-06T19:38:23.264Z,5.92
2018-09-06T19:40:51.988Z,6.58
2018-09-06T19:43:20.514Z,5.40
2018-09-06T19:45:49.115Z,6.17
2018-09-06T19:48:17.828Z,6.03
2018-09-06T19:50:46.628Z,6.05
2018-09-06T19:53:15.311Z,5.92
2018-09-06T19:55:44.671Z,5.12
2018-09-06T19:58:13.289Z,5.60
2018-09-06T20:00:42.481Z,5.58
2018-09-06T20:03:11.333Z,6.25
2018-09-06T20:05:40.420Z,5.37
2018-09-06T20:08:09.460Z,6.62
2018-09-06T20:10:38.356Z,7.05
2018-09-06T20:13:07.251Z,5.87
2018-09-06T20:15:36.080Z,6.15
2018-09-06T20:18:05.664Z,8.35
2018-09-06T20:20:34.375Z,8.20
2018-09-06T20:23:03.449Z,7.50
2018-09-06T20:25:32.284Z,8.10
2018-09-06T20:28:01.617Z,7.97
2018-09-06T20:30:30.278Z,7.00
2018-09-06T20:32:58.783Z,7.25
2018-09-06T20:35:27.376Z,8.13
2018-09-06T20:37:56.060Z,7.62
2018-09-06T20:40:24.904Z,7.70
2018-09-06T20:42:53.557Z,8.05
2018-09-06T20:45:22.233Z,8.13
2018-09-06T20:47:51.105Z,8.03
2018-09-06T20:50:19.768Z,8.40
2018-09-06T20:52:48.601Z,7.65
2018-09-06T20:55:17.990Z,8.03
2018-09-06T20:57:46.552Z,7.95
2018-09-06T21:00:15.334Z,7.20
2018-09-06T21:02:43.923Z,8.15
2018-09-06T21:05:12.694Z,7.67
2018-09-06T21:07:41.321Z,8.60
2018-09-06T21:10:10.025Z,7.85
2018-09-06T21:12:38.562Z,7.92
2018-09-06T21:15:07.143Z,8.83
2018-09-06T21:17:35.660Z,7.70
2018-09-06T21:20:04.482Z,8.80
2018-09-06T21:22:33.148Z,8.35
2018-09-06T21:25:02.043Z,7.87
2018-09-06T21:27:30.839Z,8.05
2018-09-06T21:29:59.404Z,8.50
2018-09-06T21:32:27.895Z,8.10
2018-09-06T21:34:56.409Z,7.78
2018-09-06T21:37:24.865Z,8.30
2018-09-06T21:39:53.642Z,8.45
2018-09-06T21:42:22.287Z,9.20
2018-09-06T21:44:50.838Z,9.85
2018-09-06T21:47:19.434Z,9.40
2018-09-06T21:49:47.903Z,9.98
2018-09-06T21:52:16.967Z,9.98
2018-09-06T21:54:45.657Z,10.70
2018-09-06T21:57:14.303Z,10.08
2018-09-06T21:59:42.926Z,10.10
2018-09-06T22:02:16.672Z,10.98
2018-09-06T22:04:45.245Z,11.22
2018-09-06T22:07:14.366Z,10.20
2018-09-06T22:09:45.736Z,11.18
2018-09-06T22:12:16.722Z,11.08
2018-09-06T22:14:46.755Z,10.15
2018-09-06T22:17:15.398Z,10.08
2018-09-06T22:19:43.939Z,10.45
2018-09-06T22:22:12.590Z,9.33
2018-09-06T22:24:41.801Z,9.93
2018-09-06T22:27:10.464Z,9.25
2018-09-06T22:29:39.201Z,8.88
2018-09-06T22:32:07.882Z,9.13
2018-09-06T22:34:37.354Z,8.50
2018-09-06T22:37:06.147Z,8.75
2018-09-06T22:39:34.797Z,9.25
2018-09-06T22:42:03.498Z,9.78
2018-09-06T22:44:32.853Z,9.05
2018-09-06T22:47:01.333Z,9.28
2018-09-06T22:49:30.031Z,10.03
2018-09-06T22:51:58.532Z,9.38
2018-09-06T22:54:27.055Z,9.68
2018-09-06T22:56:55.829Z,9.28
2018-09-06T22:59:25.249Z,9.65
2018-09-06T23:01:53.953Z,9.40
2018-09-06T23:04:22.538Z,9.05
2018-09-06T23:06:51.249Z,9.88
2018-09-06T23:09:19.849Z,9.23
2018-09-06T23:11:49.018Z,10.00
2018-09-06T23:14:17.565Z,9.10
2018-09-06T23:16:46.022Z,10.18
2018-09-06T23:19:14.640Z,9.88
2018-09-06T23:21:43.216Z,10.50
2018-09-06T23:24:11.815Z,9.90
2018-09-06T23:26:40.972Z,10.60
2018-09-06T23:29:10.217Z,10.50
2018-09-06T23:31:39.683Z,11.33
2018-09-06T23:34:08.375Z,10.98
2018-09-06T23:36:36.884Z,10.53
2018-09-06T23:39:07.436Z,10.30
2018-09-06T23:41:36.071Z,10.60
2018-09-06T23:44:04.845Z,11.33
2018-09-06T23:46:33.325Z,10.98
2018-09-06T23:49:02.051Z,10.82
2018-09-06T23:51:30.555Z,9.78
2018-09-06T23:53:59.777Z,10.95
2018-09-06T23:56:29.090Z,11.03
2018-09-06T23:58:57.621Z,11.85
